sensor_id;sensor_type;location;lat;lon;timestamp;pressure;altitude;pressure_sealevel;temperature;humidity
1926;BME280;964;42.606;23.588;2023-12-20T00:00:20;94881.53;;;12.02;41.18
1926;BME280;964;42.606;23.588;2023-12-20T00:02:46;94889.56;;;11.86;41.00
1926;BME280;964;42.606;23.588;2023-12-20T00:05:14;94885.03;;;11.87;40.32
1926;BME280;964;42.606;23.588;2023-12-20T00:07:40;94884.38;;;11.93;40.56
1926;BME280;964;42.606;23.588;2023-12-20T00:10:08;94877.03;;;12.25;39.90
1926;BME280;964;42.606;23.588;2023-12-20T00:12:35;94869.63;;;12.99;38.30
1926;BME280;964;42.606;23.588;2023-12-20T00:15:03;94863.69;;;12.86;38.82
1926;BME280;964;42.606;23.588;2023-12-20T00:17:30;94859.25;;;12.48;38.83
1926;BME280;964;42.606;23.588;2023-12-20T00:19:57;94865.75;;;12.51;38.37
1926;BME280;964;42.606;23.588;2023-12-20T00:22:24;94874.03;;;12.26;38.39
1926;BME280;964;42.606;23.588;2023-12-20T00:24:51;94862.31;;;12.50;39.70
1926;BME280;964;42.606;23.588;2023-12-20T00:27:18;94855.19;;;12.77;38.92
1926;BME280;964;42.606;23.588;2023-12-20T00:29:45;94859.81;;;12.80;37.63
1926;BME280;964;42.606;23.588;2023-12-20T00:32:16;94847.97;;;12.55;38.27
1926;BME280;964;42.606;23.588;2023-12-20T00:34:43;94853.31;;;12.13;39.21
1926;BME280;964;42.606;23.588;2023-12-20T00:37:10;94856.88;;;12.01;38.65
1926;BME280;964;42.606;23.588;2023-12-20T00:39:37;94848.03;;;11.78;39.98
1926;BME280;964;42.606;23.588;2023-12-20T00:42:04;94849.13;;;11.58;40.54
1926;BME280;964;42.606;23.588;2023-12-20T00:44:31;94843.63;;;11.31;41.34
1926;BME280;964;42.606;23.588;2023-12-20T00:46:58;94843.72;;;11.19;41.79
1926;BME280;964;42.606;23.588;2023-12-20T00:49:26;94835.56;;;11.44;40.60
1926;BME280;964;42.606;23.588;2023-12-20T00:51:54;94827.75;;;11.51;40.55
1926;BME280;964;42.606;23.588;2023-12-20T00:54:20;94830.13;;;11.56;40.44
1926;BME280;964;42.606;23.588;2023-12-20T00:56:47;94828.81;;;11.30;40.76
1926;BME280;964;42.606;23.588;2023-12-20T00:59:14;94830.31;;;11.12;41.01
1926;BME280;964;42.606;23.588;2023-12-20T01:01:41;94826.84;;;11.27;40.38
1926;BME280;964;42.606;23.588;2023-12-20T01:04:08;94823.97;;;11.17;40.69
1926;BME280;964;42.606;23.588;2023-12-20T01:06:36;94822.28;;;10.93;41.23
1926;BME280;964;42.606;23.588;2023-12-20T01:09:04;94817.66;;;10.90;41.41
1926;BME280;964;42.606;23.588;2023-12-20T01:11:30;94820.00;;;10.76;42.48
1926;BME280;964;42.606;23.588;2023-12-20T01:13:57;94812.28;;;11.02;41.87
1926;BME280;964;42.606;23.588;2023-12-20T01:16:24;94812.81;;;10.92;42.14
1926;BME280;964;42.606;23.588;2023-12-20T01:18:51;94802.72;;;10.82;42.26
1926;BME280;964;42.606;23.588;2023-12-20T01:21:18;94796.78;;;11.04;41.12
1926;BME280;964;42.606;23.588;2023-12-20T01:23:46;94800.91;;;10.86;42.33
1926;BME280;964;42.606;23.588;2023-12-20T01:26:13;94787.59;;;10.82;42.03
1926;BME280;964;42.606;23.588;2023-12-20T01:28:41;94792.63;;;10.88;41.44
1926;BME280;964;42.606;23.588;2023-12-20T01:31:08;94787.31;;;11.03;42.14
1926;BME280;964;42.606;23.588;2023-12-20T01:33:35;94786.53;;;11.03;41.15
1926;BME280;964;42.606;23.588;2023-12-20T01:36:02;94778.16;;;11.01;41.44
1926;BME280;964;42.606;23.588;2023-12-20T01:38:29;94774.78;;;11.19;40.77
1926;BME280;964;42.606;23.588;2023-12-20T01:40:58;94775.88;;;11.18;41.14
1926;BME280;964;42.606;23.588;2023-12-20T01:43:24;94771.03;;;11.59;39.95
1926;BME280;964;42.606;23.588;2023-12-20T01:45:52;94771.22;;;11.31;41.01
1926;BME280;964;42.606;23.588;2023-12-20T01:48:19;94761.88;;;11.18;40.70
1926;BME280;964;42.606;23.588;2023-12-20T01:50:48;94760.25;;;11.13;41.71
1926;BME280;964;42.606;23.588;2023-12-20T01:53:15;94753.16;;;11.17;41.25
1926;BME280;964;42.606;23.588;2023-12-20T01:55:43;94745.16;;;10.98;41.66
1926;BME280;964;42.606;23.588;2023-12-20T01:58:12;94744.16;;;10.71;42.35
1926;BME280;964;42.606;23.588;2023-12-20T02:00:40;94738.91;;;11.25;41.07
1926;BME280;964;42.606;23.588;2023-12-20T02:03:07;94737.41;;;11.09;41.44
1926;BME280;964;42.606;23.588;2023-12-20T02:05:35;94738.88;;;11.06;41.12
1926;BME280;964;42.606;23.588;2023-12-20T02:08:03;94736.88;;;10.84;42.08
1926;BME280;964;42.606;23.588;2023-12-20T02:10:31;94731.91;;;10.98;41.70
1926;BME280;964;42.606;23.588;2023-12-20T02:12:58;94726.97;;;11.16;41.14
1926;BME280;964;42.606;23.588;2023-12-20T02:15:26;94721.50;;;11.09;41.67
1926;BME280;964;42.606;23.588;2023-12-20T02:17:53;94718.41;;;11.42;39.87
1926;BME280;964;42.606;23.588;2023-12-20T02:20:21;94719.06;;;11.19;39.92
1926;BME280;964;42.606;23.588;2023-12-20T02:22:49;94715.25;;;11.17;40.53
1926;BME280;964;42.606;23.588;2023-12-20T02:25:16;94705.88;;;11.23;40.98
1926;BME280;964;42.606;23.588;2023-12-20T02:27:43;94716.22;;;11.09;41.20
1926;BME280;964;42.606;23.588;2023-12-20T02:30:10;94699.88;;;11.26;40.76
1926;BME280;964;42.606;23.588;2023-12-20T02:32:37;94705.25;;;11.29;40.43
1926;BME280;964;42.606;23.588;2023-12-20T02:35:04;94689.25;;;12.06;39.14
1926;BME280;964;42.606;23.588;2023-12-20T02:37:32;94691.03;;;12.21;38.54
1926;BME280;964;42.606;23.588;2023-12-20T02:40:01;94694.22;;;11.85;39.58
1926;BME280;964;42.606;23.588;2023-12-20T02:42:29;94682.91;;;11.69;39.39
1926;BME280;964;42.606;23.588;2023-12-20T02:44:56;94687.13;;;11.51;40.03
1926;BME280;964;42.606;23.588;2023-12-20T02:47:23;94688.63;;;11.52;39.81
1926;BME280;964;42.606;23.588;2023-12-20T02:49:50;94686.28;;;11.27;40.09
1926;BME280;964;42.606;23.588;2023-12-20T02:52:18;94689.53;;;11.78;39.39
1926;BME280;964;42.606;23.588;2023-12-20T02:54:45;94685.59;;;12.14;38.40
1926;BME280;964;42.606;23.588;2023-12-20T02:57:13;94681.94;;;11.58;38.98
1926;BME280;964;42.606;23.588;2023-12-20T02:59:40;94693.31;;;11.01;40.39
1926;BME280;964;42.606;23.588;2023-12-20T03:02:06;94692.94;;;10.83;41.38
1926;BME280;964;42.606;23.588;2023-12-20T03:04:33;94687.72;;;10.87;40.88
1926;BME280;964;42.606;23.588;2023-12-20T03:07:00;94681.63;;;10.86;40.54
1926;BME280;964;42.606;23.588;2023-12-20T03:09:27;94682.09;;;11.07;40.83
1926;BME280;964;42.606;23.588;2023-12-20T03:11:54;94683.72;;;10.77;41.87
1926;BME280;964;42.606;23.588;2023-12-20T03:14:22;94683.63;;;11.08;41.53
1926;BME280;964;42.606;23.588;2023-12-20T03:16:49;94679.56;;;11.33;40.81
1926;BME280;964;42.606;23.588;2023-12-20T03:19:17;94685.44;;;11.23;40.17
1926;BME280;964;42.606;23.588;2023-12-20T03:21:44;94678.47;;;11.54;40.34
1926;BME280;964;42.606;23.588;2023-12-20T03:24:11;94671.34;;;11.39;39.43
1926;BME280;964;42.606;23.588;2023-12-20T03:26:38;94665.56;;;11.94;39.32
1926;BME280;964;42.606;23.588;2023-12-20T03:29:05;94673.75;;;11.86;38.89
1926;BME280;964;42.606;23.588;2023-12-20T03:31:33;94667.66;;;11.43;38.93
1926;BME280;964;42.606;23.588;2023-12-20T03:34:00;94663.25;;;11.51;39.89
1926;BME280;964;42.606;23.588;2023-12-20T03:36:27;94666.66;;;11.93;38.45
1926;BME280;964;42.606;23.588;2023-12-20T03:38:54;94674.69;;;10.97;39.70
1926;BME280;964;42.606;23.588;2023-12-20T03:41:21;94680.91;;;10.19;39.52
1926;BME280;964;42.606;23.588;2023-12-20T03:43:47;94680.50;;;10.68;38.39
1926;BME280;964;42.606;23.588;2023-12-20T03:46:14;94686.38;;;10.26;38.95
1926;BME280;964;42.606;23.588;2023-12-20T03:48:43;94681.56;;;10.63;38.46
1926;BME280;964;42.606;23.588;2023-12-20T03:51:10;94677.19;;;10.71;38.28
1926;BME280;964;42.606;23.588;2023-12-20T03:53:36;94673.69;;;10.67;37.74
1926;BME280;964;42.606;23.588;2023-12-20T03:56:05;94677.13;;;10.52;38.42
1926;BME280;964;42.606;23.588;2023-12-20T03:58:32;94672.88;;;10.31;37.86
1926;BME280;964;42.606;23.588;2023-12-20T04:00:59;94668.34;;;10.32;38.05
1926;BME280;964;42.606;23.588;2023-12-20T04:03:25;94666.84;;;10.66;37.48
1926;BME280;964;42.606;23.588;2023-12-20T04:05:54;94665.19;;;10.26;37.78
1926;BME280;964;42.606;23.588;2023-12-20T04:08:21;94668.63;;;10.62;37.78
1926;BME280;964;42.606;23.588;2023-12-20T04:10:48;94665.19;;;10.77;37.59
1926;BME280;964;42.606;23.588;2023-12-20T04:13:15;94667.38;;;10.56;38.51
1926;BME280;964;42.606;23.588;2023-12-20T04:15:42;94665.06;;;10.54;38.05
1926;BME280;964;42.606;23.588;2023-12-20T04:18:08;94656.31;;;10.19;38.59
1926;BME280;964;42.606;23.588;2023-12-20T04:20:35;94652.03;;;10.14;38.42
1926;BME280;964;42.606;23.588;2023-12-20T04:23:04;94643.00;;;9.41;39.62
1926;BME280;964;42.606;23.588;2023-12-20T04:25:30;94644.78;;;9.36;40.48
1926;BME280;964;42.606;23.588;2023-12-20T04:27:57;94645.91;;;9.51;40.61
1926;BME280;964;42.606;23.588;2023-12-20T04:30:24;94640.50;;;9.91;40.29
1926;BME280;964;42.606;23.588;2023-12-20T04:32:51;94640.72;;;9.55;40.79
1926;BME280;964;42.606;23.588;2023-12-20T04:35:17;94632.81;;;9.70;41.49
1926;BME280;964;42.606;23.588;2023-12-20T04:37:44;94632.38;;;9.84;41.01
1926;BME280;964;42.606;23.588;2023-12-20T04:40:13;94627.78;;;10.12;40.63
1926;BME280;964;42.606;23.588;2023-12-20T04:42:39;94632.56;;;10.22;40.26
1926;BME280;964;42.606;23.588;2023-12-20T04:45:07;94625.28;;;10.35;40.33
1926;BME280;964;42.606;23.588;2023-12-20T04:47:34;94625.72;;;10.21;40.54
1926;BME280;964;42.606;23.588;2023-12-20T04:50:01;94607.22;;;10.75;39.99
1926;BME280;964;42.606;23.588;2023-12-20T04:52:28;94610.50;;;10.88;39.82
1926;BME280;964;42.606;23.588;2023-12-20T04:54:55;94616.50;;;11.04;39.21
1926;BME280;964;42.606;23.588;2023-12-20T04:57:24;94608.69;;;10.73;39.42
1926;BME280;964;42.606;23.588;2023-12-20T04:59:50;94620.94;;;9.80;41.38
1926;BME280;964;42.606;23.588;2023-12-20T05:02:17;94619.97;;;9.41;41.86
1926;BME280;964;42.606;23.588;2023-12-20T05:04:44;94621.47;;;9.54;40.90
1926;BME280;964;42.606;23.588;2023-12-20T05:07:11;94617.72;;;9.71;39.94
1926;BME280;964;42.606;23.588;2023-12-20T05:09:38;94623.81;;;9.44;39.89
1926;BME280;964;42.606;23.588;2023-12-20T05:12:06;94620.16;;;9.48;39.63
1926;BME280;964;42.606;23.588;2023-12-20T05:14:34;94614.72;;;9.13;40.08
1926;BME280;964;42.606;23.588;2023-12-20T05:17:01;94613.38;;;9.94;39.03
1926;BME280;964;42.606;23.588;2023-12-20T05:19:28;94604.56;;;9.90;38.67
1926;BME280;964;42.606;23.588;2023-12-20T05:21:55;94602.69;;;10.22;38.41
1926;BME280;964;42.606;23.588;2023-12-20T05:24:22;94609.34;;;10.00;38.71
1926;BME280;964;42.606;23.588;2023-12-20T05:26:49;94600.94;;;9.98;39.27
1926;BME280;964;42.606;23.588;2023-12-20T05:29:16;94596.09;;;9.38;40.73
1926;BME280;964;42.606;23.588;2023-12-20T05:31:44;94595.84;;;9.74;40.20
1926;BME280;964;42.606;23.588;2023-12-20T05:34:11;94594.66;;;10.18;39.58
1926;BME280;964;42.606;23.588;2023-12-20T05:36:38;94582.16;;;10.35;39.66
1926;BME280;964;42.606;23.588;2023-12-20T05:39:04;94575.91;;;10.62;39.63
1926;BME280;964;42.606;23.588;2023-12-20T05:41:33;94580.09;;;10.82;39.42
1926;BME280;964;42.606;23.588;2023-12-20T05:44:00;94577.69;;;11.15;38.89
1926;BME280;964;42.606;23.588;2023-12-20T05:46:27;94573.47;;;11.33;38.48
1926;BME280;964;42.606;23.588;2023-12-20T05:48:55;94578.00;;;10.91;39.96
1926;BME280;964;42.606;23.588;2023-12-20T05:51:22;94572.91;;;11.44;38.91
1926;BME280;964;42.606;23.588;2023-12-20T05:53:49;94571.00;;;11.67;38.13
1926;BME280;964;42.606;23.588;2023-12-20T05:56:16;94567.59;;;11.44;39.18
1926;BME280;964;42.606;23.588;2023-12-20T05:58:43;94563.75;;;11.41;38.63
1926;BME280;964;42.606;23.588;2023-12-20T06:01:10;94560.81;;;11.46;38.70
1926;BME280;964;42.606;23.588;2023-12-20T06:03:41;94552.59;;;11.55;38.66
1926;BME280;964;42.606;23.588;2023-12-20T06:06:09;94548.50;;;11.35;38.78
1926;BME280;964;42.606;23.588;2023-12-20T06:08:36;94545.94;;;10.77;39.67
1926;BME280;964;42.606;23.588;2023-12-20T06:11:03;94543.84;;;10.48;40.76
1926;BME280;964;42.606;23.588;2023-12-20T06:13:30;94546.06;;;10.84;39.93
1926;BME280;964;42.606;23.588;2023-12-20T06:15:57;94547.00;;;11.14;39.69
1926;BME280;964;42.606;23.588;2023-12-20T06:18:24;94553.41;;;11.32;39.67
1926;BME280;964;42.606;23.588;2023-12-20T06:20:51;94550.03;;;10.94;40.80
1926;BME280;964;42.606;23.588;2023-12-20T06:23:19;94554.69;;;11.65;39.33
1926;BME280;964;42.606;23.588;2023-12-20T06:25:46;94553.72;;;11.99;39.18
1926;BME280;964;42.606;23.588;2023-12-20T06:28:13;94549.13;;;12.22;38.18
1926;BME280;964;42.606;23.588;2023-12-20T06:30:40;94554.91;;;11.33;40.15
1926;BME280;964;42.606;23.588;2023-12-20T06:33:07;94548.97;;;11.86;39.44
1926;BME280;964;42.606;23.588;2023-12-20T06:35:35;94550.91;;;11.66;40.60
1926;BME280;964;42.606;23.588;2023-12-20T06:38:02;94551.31;;;11.68;39.64
1926;BME280;964;42.606;23.588;2023-12-20T06:40:30;94550.63;;;11.71;39.88
1926;BME280;964;42.606;23.588;2023-12-20T06:42:57;94554.53;;;12.29;38.97
1926;BME280;964;42.606;23.588;2023-12-20T06:45:25;94544.00;;;12.37;39.09
1926;BME280;964;42.606;23.588;2023-12-20T06:47:51;94548.00;;;12.23;38.48
1926;BME280;964;42.606;23.588;2023-12-20T06:50:20;94548.00;;;11.97;39.11
1926;BME280;964;42.606;23.588;2023-12-20T06:52:47;94546.94;;;11.33;40.04
1926;BME280;964;42.606;23.588;2023-12-20T06:55:14;94548.72;;;11.49;39.74
1926;BME280;964;42.606;23.588;2023-12-20T06:57:42;94542.75;;;11.55;39.80
1926;BME280;964;42.606;23.588;2023-12-20T07:00:11;94535.28;;;12.36;39.06
1926;BME280;964;42.606;23.588;2023-12-20T07:02:38;94534.00;;;12.26;39.44
1926;BME280;964;42.606;23.588;2023-12-20T07:05:05;94532.31;;;11.89;38.52
1926;BME280;964;42.606;23.588;2023-12-20T07:07:32;94537.84;;;12.03;39.38
1926;BME280;964;42.606;23.588;2023-12-20T07:09:59;94538.22;;;12.01;39.05
1926;BME280;964;42.606;23.588;2023-12-20T07:12:26;94536.06;;;12.10;38.21
1926;BME280;964;42.606;23.588;2023-12-20T07:14:55;94532.13;;;12.01;38.75
1926;BME280;964;42.606;23.588;2023-12-20T07:17:22;94528.47;;;12.39;38.75
1926;BME280;964;42.606;23.588;2023-12-20T07:19:49;94526.31;;;12.48;37.62
1926;BME280;964;42.606;23.588;2023-12-20T07:22:16;94519.78;;;12.75;37.81
1926;BME280;964;42.606;23.588;2023-12-20T07:24:43;94512.00;;;12.89;36.87
1926;BME280;964;42.606;23.588;2023-12-20T07:27:09;94510.44;;;13.21;36.01
1926;BME280;964;42.606;23.588;2023-12-20T07:29:36;94521.84;;;13.18;37.03
1926;BME280;964;42.606;23.588;2023-12-20T07:32:05;94506.56;;;13.15;36.74
1926;BME280;964;42.606;23.588;2023-12-20T07:34:33;94516.69;;;13.03;36.68
1926;BME280;964;42.606;23.588;2023-12-20T07:37:00;94514.56;;;13.15;36.15
1926;BME280;964;42.606;23.588;2023-12-20T07:39:27;94517.78;;;12.98;36.55
1926;BME280;964;42.606;23.588;2023-12-20T07:41:54;94516.16;;;13.23;36.76
1926;BME280;964;42.606;23.588;2023-12-20T07:44:21;94507.97;;;13.43;36.60
1926;BME280;964;42.606;23.588;2023-12-20T07:46:48;94509.81;;;12.98;37.23
1926;BME280;964;42.606;23.588;2023-12-20T07:49:16;94498.56;;;13.12;35.97
1926;BME280;964;42.606;23.588;2023-12-20T07:51:43;94509.88;;;13.05;36.74
1926;BME280;964;42.606;23.588;2023-12-20T07:54:10;94510.72;;;12.79;38.40
1926;BME280;964;42.606;23.588;2023-12-20T07:56:37;94511.28;;;13.73;36.62
1926;BME280;964;42.606;23.588;2023-12-20T07:59:05;94496.25;;;13.51;37.17
1926;BME280;964;42.606;23.588;2023-12-20T08:01:32;94506.44;;;13.89;36.63
1926;BME280;964;42.606;23.588;2023-12-20T08:03:59;94498.31;;;14.30;35.91
1926;BME280;964;42.606;23.588;2023-12-20T08:06:27;94501.56;;;13.98;36.48
1926;BME280;964;42.606;23.588;2023-12-20T08:08:54;94503.66;;;13.75;36.39
1926;BME280;964;42.606;23.588;2023-12-20T08:11:21;94492.28;;;13.78;35.68
1926;BME280;964;42.606;23.588;2023-12-20T08:13:48;94492.63;;;13.69;36.54
1926;BME280;964;42.606;23.588;2023-12-20T08:16:15;94483.59;;;13.88;36.03
1926;BME280;964;42.606;23.588;2023-12-20T08:18:43;94473.69;;;14.54;36.10
1926;BME280;964;42.606;23.588;2023-12-20T08:21:10;94474.31;;;14.30;35.73
1926;BME280;964;42.606;23.588;2023-12-20T08:23:38;94468.31;;;14.47;36.06
1926;BME280;964;42.606;23.588;2023-12-20T08:26:05;94472.78;;;14.32;35.25
1926;BME280;964;42.606;23.588;2023-12-20T08:28:32;94460.59;;;14.24;36.12
1926;BME280;964;42.606;23.588;2023-12-20T08:31:00;94465.59;;;13.71;36.84
1926;BME280;964;42.606;23.588;2023-12-20T08:33:27;94467.00;;;13.51;36.62
1926;BME280;964;42.606;23.588;2023-12-20T08:35:54;94464.69;;;13.49;36.68
1926;BME280;964;42.606;23.588;2023-12-20T08:38:21;94464.78;;;13.63;36.64
1926;BME280;964;42.606;23.588;2023-12-20T08:40:49;94457.19;;;13.62;37.04
1926;BME280;964;42.606;23.588;2023-12-20T08:43:16;94446.63;;;13.76;37.23
1926;BME280;964;42.606;23.588;2023-12-20T08:45:43;94428.03;;;14.66;36.24
1926;BME280;964;42.606;23.588;2023-12-20T08:48:10;94437.16;;;14.72;35.88
1926;BME280;964;42.606;23.588;2023-12-20T08:50:37;94440.00;;;14.17;36.37
1926;BME280;964;42.606;23.588;2023-12-20T08:53:04;94437.97;;;14.90;36.09
1926;BME280;964;42.606;23.588;2023-12-20T08:55:31;94431.09;;;14.68;36.05
1926;BME280;964;42.606;23.588;2023-12-20T08:57:59;94444.66;;;13.66;36.76
1926;BME280;964;42.606;23.588;2023-12-20T09:00:26;94440.47;;;13.65;37.32
1926;BME280;964;42.606;23.588;2023-12-20T09:02:53;94429.81;;;13.65;37.23
1926;BME280;964;42.606;23.588;2023-12-20T09:05:20;94417.84;;;14.06;36.81
1926;BME280;964;42.606;23.588;2023-12-20T09:07:46;94420.16;;;14.04;36.83
1926;BME280;964;42.606;23.588;2023-12-20T09:10:13;94411.72;;;13.95;37.01
1926;BME280;964;42.606;23.588;2023-12-20T09:12:40;94409.38;;;13.80;36.95
1926;BME280;964;42.606;23.588;2023-12-20T09:15:09;94401.88;;;13.41;38.03
1926;BME280;964;42.606;23.588;2023-12-20T09:17:36;94396.38;;;13.71;37.97
1926;BME280;964;42.606;23.588;2023-12-20T09:20:03;94385.81;;;13.89;37.40
1926;BME280;964;42.606;23.588;2023-12-20T09:22:32;94390.31;;;13.74;38.07
1926;BME280;964;42.606;23.588;2023-12-20T09:24:59;94369.63;;;13.50;37.92
1926;BME280;964;42.606;23.588;2023-12-20T09:27:27;94372.59;;;13.38;38.73
1926;BME280;964;42.606;23.588;2023-12-20T09:29:54;94364.56;;;13.99;37.76
1926;BME280;964;42.606;23.588;2023-12-20T09:32:22;94359.13;;;13.78;37.27
1926;BME280;964;42.606;23.588;2023-12-20T09:34:49;94351.47;;;13.66;38.05
1926;BME280;964;42.606;23.588;2023-12-20T09:37:15;94355.09;;;13.33;38.80
1926;BME280;964;42.606;23.588;2023-12-20T09:39:42;94346.31;;;14.01;38.10
1926;BME280;964;42.606;23.588;2023-12-20T09:42:11;94337.59;;;14.11;37.43
1926;BME280;964;42.606;23.588;2023-12-20T09:44:40;94339.41;;;13.90;38.79
1926;BME280;964;42.606;23.588;2023-12-20T09:47:08;94325.94;;;14.69;37.46
1926;BME280;964;42.606;23.588;2023-12-20T09:49:36;94319.81;;;14.65;37.39
1926;BME280;964;42.606;23.588;2023-12-20T09:52:05;94316.41;;;15.17;36.83
1926;BME280;964;42.606;23.588;2023-12-20T09:54:34;94312.56;;;15.54;36.38
1926;BME280;964;42.606;23.588;2023-12-20T09:57:01;94302.53;;;16.59;34.36
1926;BME280;964;42.606;23.588;2023-12-20T09:59:27;94289.97;;;16.49;33.99
1926;BME280;964;42.606;23.588;2023-12-20T10:01:55;94286.28;;;16.29;34.54
1926;BME280;964;42.606;23.588;2023-12-20T10:04:23;94285.78;;;16.48;35.01
1926;BME280;964;42.606;23.588;2023-12-20T10:06:52;94277.63;;;16.69;34.17
1926;BME280;964;42.606;23.588;2023-12-20T10:09:19;94259.94;;;17.64;33.70
1926;BME280;964;42.606;23.588;2023-12-20T10:11:46;94252.16;;;18.03;32.72
1926;BME280;964;42.606;23.588;2023-12-20T10:14:13;94234.34;;;19.17;32.03
1926;BME280;964;42.606;23.588;2023-12-20T10:16:40;94236.41;;;20.79;30.00
1926;BME280;964;42.606;23.588;2023-12-20T10:19:07;94217.13;;;21.83;28.23
1926;BME280;964;42.606;23.588;2023-12-20T10:21:34;94223.81;;;21.50;28.22
1926;BME280;964;42.606;23.588;2023-12-20T10:24:03;94219.81;;;21.83;27.91
1926;BME280;964;42.606;23.588;2023-12-20T10:26:30;94210.53;;;22.51;26.92
1926;BME280;964;42.606;23.588;2023-12-20T10:29:00;94217.19;;;21.96;27.07
1926;BME280;964;42.606;23.588;2023-12-20T10:31:29;94224.63;;;20.57;28.75
1926;BME280;964;42.606;23.588;2023-12-20T10:33:57;94233.78;;;18.59;31.40
1926;BME280;964;42.606;23.588;2023-12-20T10:36:26;94230.94;;;17.86;32.57
1926;BME280;964;42.606;23.588;2023-12-20T10:38:54;94246.56;;;16.82;33.69
1926;BME280;964;42.606;23.588;2023-12-20T10:41:25;94238.78;;;15.92;35.91
1926;BME280;964;42.606;23.588;2023-12-20T10:43:56;94242.19;;;16.51;35.26
1926;BME280;964;42.606;23.588;2023-12-20T10:46:26;94233.63;;;16.77;34.11
1926;BME280;964;42.606;23.588;2023-12-20T10:48:54;94230.47;;;16.34;35.99
1926;BME280;964;42.606;23.588;2023-12-20T10:51:21;94229.88;;;16.67;35.11
1926;BME280;964;42.606;23.588;2023-12-20T10:53:48;94219.34;;;16.43;35.08
1926;BME280;964;42.606;23.588;2023-12-20T10:56:16;94191.84;;;17.24;33.50
1926;BME280;964;42.606;23.588;2023-12-20T10:58:46;94201.06;;;17.20;34.50
1926;BME280;964;42.606;23.588;2023-12-20T11:01:14;94186.50;;;18.42;32.94
1926;BME280;964;42.606;23.588;2023-12-20T11:03:44;94180.47;;;18.34;32.15
1926;BME280;964;42.606;23.588;2023-12-20T11:06:24;94183.97;;;18.04;33.36
1926;BME280;964;42.606;23.588;2023-12-20T11:08:58;94167.97;;;18.51;32.26
1926;BME280;964;42.606;23.588;2023-12-20T11:11:38;94169.44;;;18.55;32.10
1926;BME280;964;42.606;23.588;2023-12-20T11:14:14;94164.31;;;18.38;32.62
1926;BME280;964;42.606;23.588;2023-12-20T11:16:42;94154.09;;;18.56;31.94
1926;BME280;964;42.606;23.588;2023-12-20T11:19:11;94158.63;;;18.59;32.09
1926;BME280;964;42.606;23.588;2023-12-20T11:21:40;94147.63;;;18.96;31.96
1926;BME280;964;42.606;23.588;2023-12-20T11:24:07;94131.19;;;19.34;32.10
1926;BME280;964;42.606;23.588;2023-12-20T11:26:34;94128.88;;;20.24;30.51
1926;BME280;964;42.606;23.588;2023-12-20T11:29:30;94109.31;;;21.42;29.63
1926;BME280;964;42.606;23.588;2023-12-20T11:31:57;94106.94;;;21.44;29.06
1926;BME280;964;42.606;23.588;2023-12-20T11:34:27;94110.13;;;21.26;29.46
1926;BME280;964;42.606;23.588;2023-12-20T11:36:57;94097.41;;;21.27;29.44
1926;BME280;964;42.606;23.588;2023-12-20T11:39:25;94091.63;;;21.41;29.22
1926;BME280;964;42.606;23.588;2023-12-20T11:41:54;94085.75;;;22.09;28.63
1926;BME280;964;42.606;23.588;2023-12-20T11:44:21;94103.63;;;20.01;31.01
1926;BME280;964;42.606;23.588;2023-12-20T11:46:50;94098.94;;;20.05;30.85
1926;BME280;964;42.606;23.588;2023-12-20T11:49:17;94089.28;;;19.92;31.04
1926;BME280;964;42.606;23.588;2023-12-20T11:51:44;94097.72;;;18.79;33.21
1926;BME280;964;42.606;23.588;2023-12-20T11:54:11;94082.47;;;18.53;33.60
1926;BME280;964;42.606;23.588;2023-12-20T11:56:38;94078.22;;;18.95;32.90
1926;BME280;964;42.606;23.588;2023-12-20T11:59:05;94076.97;;;18.37;33.75
1926;BME280;964;42.606;23.588;2023-12-20T12:01:34;94075.06;;;17.64;35.49
1926;BME280;964;42.606;23.588;2023-12-20T12:04:06;94073.00;;;18.22;34.05
1926;BME280;964;42.606;23.588;2023-12-20T12:06:34;94056.69;;;18.98;32.90
1926;BME280;964;42.606;23.588;2023-12-20T12:09:00;94054.59;;;18.00;34.01
1926;BME280;964;42.606;23.588;2023-12-20T12:11:29;94044.78;;;18.37;34.41
1926;BME280;964;42.606;23.588;2023-12-20T12:13:56;94056.13;;;17.48;35.10
1926;BME280;964;42.606;23.588;2023-12-20T12:16:23;94055.16;;;17.65;34.93
1926;BME280;964;42.606;23.588;2023-12-20T12:18:57;94047.38;;;18.21;33.96
1926;BME280;964;42.606;23.588;2023-12-20T12:21:26;94042.00;;;17.97;34.12
1926;BME280;964;42.606;23.588;2023-12-20T12:23:53;94042.47;;;17.92;34.39
1926;BME280;964;42.606;23.588;2023-12-20T12:26:20;94037.09;;;17.92;34.72
1926;BME280;964;42.606;23.588;2023-12-20T12:28:46;94026.13;;;18.30;33.71
1926;BME280;964;42.606;23.588;2023-12-20T12:31:14;94023.72;;;18.58;33.91
1926;BME280;964;42.606;23.588;2023-12-20T12:33:42;94029.69;;;18.23;34.83
1926;BME280;964;42.606;23.588;2023-12-20T12:36:10;94017.69;;;18.94;33.77
1926;BME280;964;42.606;23.588;2023-12-20T12:38:38;94009.78;;;19.23;34.07
1926;BME280;964;42.606;23.588;2023-12-20T12:41:05;93992.53;;;20.78;32.18
1926;BME280;964;42.606;23.588;2023-12-20T12:43:32;93977.19;;;21.80;30.79
1926;BME280;964;42.606;23.588;2023-12-20T12:46:00;93971.16;;;23.01;29.00
1926;BME280;964;42.606;23.588;2023-12-20T12:48:27;93965.03;;;23.71;28.05
1926;BME280;964;42.606;23.588;2023-12-20T12:50:54;93954.91;;;24.20;27.22
1926;BME280;964;42.606;23.588;2023-12-20T12:53:24;93970.91;;;23.78;27.45
1926;BME280;964;42.606;23.588;2023-12-20T12:55:53;93970.94;;;22.30;29.04
1926;BME280;964;42.606;23.588;2023-12-20T12:58:21;93988.25;;;20.52;30.77
1926;BME280;964;42.606;23.588;2023-12-20T13:00:48;93993.88;;;19.64;31.92
1926;BME280;964;42.606;23.588;2023-12-20T13:03:15;93998.84;;;18.35;34.16
1926;BME280;964;42.606;23.588;2023-12-20T13:05:42;94022.84;;;16.58;37.79
1926;BME280;964;42.606;23.588;2023-12-20T13:08:09;94022.31;;;16.33;37.91
1926;BME280;964;42.606;23.588;2023-12-20T13:10:37;94010.75;;;17.37;36.21
1926;BME280;964;42.606;23.588;2023-12-20T13:13:06;94008.91;;;16.74;37.73
1926;BME280;964;42.606;23.588;2023-12-20T13:15:32;94022.63;;;15.53;38.71
1926;BME280;964;42.606;23.588;2023-12-20T13:17:59;94009.75;;;16.67;36.86
1926;BME280;964;42.606;23.588;2023-12-20T13:20:26;94019.75;;;15.81;38.73
1926;BME280;964;42.606;23.588;2023-12-20T13:22:53;94007.66;;;16.48;37.50